KMWA/MWA METAR and TAF weather

Enter ICAO airport designator
Station Type Date Time Source
KMWA METAR 2019/04/19 08:15 UTC NOAA

KMWA 190815Z AUTO 33007KT 7SM RA OVC010 07/06 A2968 RMK AO2 T00700063


Station Type Date Time Source
KMWA Decoded METAR 2019/04/19 08:15 UTC NOAA

Marion, Williamson County Regional Airport, IL, United States (KMWA) 37-45-01N 089-00-04W
Apr 19, 2019 - 04:15 AM EDT / 2019.04.19 0815 UTC
Wind: from the NNW (330 degrees) at 8 MPH (7 KT):0
Visibility: 7 mile(s):0
Sky conditions: overcast
Weather: rain
Temperature: 44.6 F (7.0 C)
Dew Point: 43.3 F (6.3 C)
Relative Humidity: 95%
Pressure (altimeter): 29.68 in. Hg (1005 hPa)
ob: KMWA 190815Z AUTO 33007KT 7SM RA OVC010 07/06 A2968 RMK AO2 T00700063
cycle: 8

Station Type Date Time Source
KMWA TAF UTC NOAA

Error!

Example: see airport list